Phenix City, Alabama
Current Conditions -  °F | °C
As of 12:51 PM on Thursday 27 Nov 2014 (Local Time) from KCSG Reporting Station
Few Clouds Few Clouds  
Wind Chill: 50°   Ceiling: Unl
Heat Index: 50°   Visibility: 10mi
Dew Point: 27°   Wind: 14mph
Humidity: 41%   Direction: 350°N
Pressure: 30.3"   Gusts: NA
Location:  32.47°N, 85°W
Report Text: KCSG 271851Z 35012KT 10SM FEW049 10/M03 A3030 RMK AO2 SLP260 T01001028
Loading
Personal Weather Stations






























Interactive Weather Map New forecast layout! Learn more

10-Day Weather Forecast

Advertisements
Track Severe Weather on mobile